sensor_id;sensor_type;location;lat;lon;timestamp;pressure;altitude;pressure_sealevel;temperature;humidity
62164;BME280;48149;51.132;7.178;2023-03-29T00:00:18;98900.06;;;4.58;nan
62164;BME280;48149;51.132;7.178;2023-03-29T00:02:44;98890.50;;;4.66;nan
62164;BME280;48149;51.132;7.178;2023-03-29T00:05:15;98886.53;;;4.78;nan
62164;BME280;48149;51.132;7.178;2023-03-29T00:07:41;98881.06;;;5.04;nan
62164;BME280;48149;51.132;7.178;2023-03-29T00:10:07;98872.28;;;5.05;nan
62164;BME280;48149;51.132;7.178;2023-03-29T00:12:34;98875.47;;;5.15;nan
62164;BME280;48149;51.132;7.178;2023-03-29T00:14:59;98872.59;;;5.10;nan
62164;BME280;48149;51.132;7.178;2023-03-29T00:17:25;98872.03;;;4.92;nan
62164;BME280;48149;51.132;7.178;2023-03-29T00:19:51;98865.94;;;4.77;nan
62164;BME280;48149;51.132;7.178;2023-03-29T00:22:16;98857.50;;;4.83;nan
62164;BME280;48149;51.132;7.178;2023-03-29T00:24:41;98859.72;;;4.94;nan
62164;BME280;48149;51.132;7.178;2023-03-29T00:27:06;98849.75;;;5.06;nan
62164;BME280;48149;51.132;7.178;2023-03-29T00:29:32;98850.94;;;4.95;nan
62164;BME280;48149;51.132;7.178;2023-03-29T00:31:57;98856.13;;;4.95;nan
62164;BME280;48149;51.132;7.178;2023-03-29T00:34:23;98848.69;;;4.92;nan
62164;BME280;48149;51.132;7.178;2023-03-29T00:36:48;98845.75;;;4.95;nan
62164;BME280;48149;51.132;7.178;2023-03-29T00:39:18;98841.72;;;4.93;nan
62164;BME280;48149;51.132;7.178;2023-03-29T00:41:44;98833.44;;;4.97;nan
62164;BME280;48149;51.132;7.178;2023-03-29T00:44:51;98832.38;;;5.06;nan
62164;BME280;48149;51.132;7.178;2023-03-29T00:47:13;98833.72;;;5.02;nan
62164;BME280;48149;51.132;7.178;2023-03-29T00:49:38;98837.41;;;5.30;nan
62164;BME280;48149;51.132;7.178;2023-03-29T00:52:04;98832.00;;;4.95;nan
62164;BME280;48149;51.132;7.178;2023-03-29T00:54:29;98839.59;;;5.19;nan
62164;BME280;48149;51.132;7.178;2023-03-29T00:56:56;98834.75;;;5.38;nan
62164;BME280;48149;51.132;7.178;2023-03-29T00:59:26;98833.47;;;5.34;nan
62164;BME280;48149;51.132;7.178;2023-03-29T01:01:56;98824.16;;;5.03;nan
62164;BME280;48149;51.132;7.178;2023-03-29T01:04:36;98823.84;;;5.20;nan
62164;BME280;48149;51.132;7.178;2023-03-29T01:07:09;98814.38;;;5.27;nan
62164;BME280;48149;51.132;7.178;2023-03-29T01:09:41;98821.03;;;5.07;nan
62164;BME280;48149;51.132;7.178;2023-03-29T01:12:12;98820.03;;;5.31;nan
62164;BME280;48149;51.132;7.178;2023-03-29T01:14:42;98822.13;;;5.35;nan
62164;BME280;48149;51.132;7.178;2023-03-29T01:17:09;98813.38;;;4.91;nan
62164;BME280;48149;51.132;7.178;2023-03-29T01:19:37;98825.31;;;5.23;nan
62164;BME280;48149;51.132;7.178;2023-03-29T01:27:04;98812.88;;;5.33;nan
62164;BME280;48149;51.132;7.178;2023-03-29T01:29:50;98806.13;;;5.24;nan
62164;BME280;48149;51.132;7.178;2023-03-29T01:32:34;98801.38;;;5.13;nan
62164;BME280;48149;51.132;7.178;2023-03-29T01:35:04;98792.56;;;5.36;nan
62164;BME280;48149;51.132;7.178;2023-03-29T01:37:42;98791.81;;;5.13;nan
62164;BME280;48149;51.132;7.178;2023-03-29T01:40:10;98785.00;;;5.12;nan
62164;BME280;48149;51.132;7.178;2023-03-29T01:47:45;98783.41;;;5.63;nan
62164;BME280;48149;51.132;7.178;2023-03-29T01:50:17;98780.34;;;5.74;nan
62164;BME280;48149;51.132;7.178;2023-03-29T01:52:47;98776.13;;;5.59;nan
62164;BME280;48149;51.132;7.178;2023-03-29T01:55:21;98783.88;;;5.67;nan
62164;BME280;48149;51.132;7.178;2023-03-29T01:57:47;98778.31;;;5.70;nan
62164;BME280;48149;51.132;7.178;2023-03-29T02:00:15;98776.50;;;5.56;nan
62164;BME280;48149;51.132;7.178;2023-03-29T02:02:41;98772.56;;;5.60;nan
62164;BME280;48149;51.132;7.178;2023-03-29T02:05:09;98768.44;;;5.80;nan
62164;BME280;48149;51.132;7.178;2023-03-29T02:07:36;98765.19;;;5.86;nan
62164;BME280;48149;51.132;7.178;2023-03-29T02:10:03;98745.50;;;5.39;nan
62164;BME280;48149;51.132;7.178;2023-03-29T02:12:29;98761.47;;;5.80;nan
62164;BME280;48149;51.132;7.178;2023-03-29T02:14:56;98758.41;;;5.62;nan
62164;BME280;48149;51.132;7.178;2023-03-29T02:17:22;98754.94;;;5.84;nan
62164;BME280;48149;51.132;7.178;2023-03-29T02:19:53;98754.47;;;5.81;nan
62164;BME280;48149;51.132;7.178;2023-03-29T02:22:22;98746.09;;;5.94;nan
62164;BME280;48149;51.132;7.178;2023-03-29T02:24:51;98736.50;;;5.79;nan
62164;BME280;48149;51.132;7.178;2023-03-29T02:27:17;98731.28;;;5.79;nan
62164;BME280;48149;51.132;7.178;2023-03-29T02:29:43;98732.81;;;6.03;nan
62164;BME280;48149;51.132;7.178;2023-03-29T02:32:14;98739.91;;;5.95;nan
62164;BME280;48149;51.132;7.178;2023-03-29T02:34:44;98740.16;;;5.85;nan
62164;BME280;48149;51.132;7.178;2023-03-29T02:37:12;98737.28;;;5.80;nan
62164;BME280;48149;51.132;7.178;2023-03-29T02:39:39;98741.59;;;5.73;nan
62164;BME280;48149;51.132;7.178;2023-03-29T02:42:06;98731.72;;;5.54;nan
62164;BME280;48149;51.132;7.178;2023-03-29T02:44:31;98739.72;;;5.81;nan
62164;BME280;48149;51.132;7.178;2023-03-29T02:47:00;98729.44;;;5.88;nan
62164;BME280;48149;51.132;7.178;2023-03-29T02:49:27;98724.03;;;5.75;nan
62164;BME280;48149;51.132;7.178;2023-03-29T02:51:53;98724.03;;;5.75;nan
62164;BME280;48149;51.132;7.178;2023-03-29T02:54:21;98721.09;;;6.07;nan
62164;BME280;48149;51.132;7.178;2023-03-29T02:56:48;98716.50;;;6.09;nan
62164;BME280;48149;51.132;7.178;2023-03-29T02:59:13;98718.72;;;6.27;nan
62164;BME280;48149;51.132;7.178;2023-03-29T03:01:40;98720.16;;;6.29;nan
62164;BME280;48149;51.132;7.178;2023-03-29T03:04:09;98727.22;;;6.35;nan
62164;BME280;48149;51.132;7.178;2023-03-29T03:06:34;98723.84;;;6.20;nan
62164;BME280;48149;51.132;7.178;2023-03-29T03:09:00;98726.22;;;6.36;nan
62164;BME280;48149;51.132;7.178;2023-03-29T03:11:26;98725.06;;;6.24;nan
62164;BME280;48149;51.132;7.178;2023-03-29T03:13:51;98724.50;;;6.08;nan
62164;BME280;48149;51.132;7.178;2023-03-29T03:16:16;98722.22;;;6.55;nan
62164;BME280;48149;51.132;7.178;2023-03-29T03:18:41;98718.06;;;6.39;nan
62164;BME280;48149;51.132;7.178;2023-03-29T03:21:09;98714.22;;;6.35;nan
62164;BME280;48149;51.132;7.178;2023-03-29T03:23:35;98702.38;;;5.97;nan
62164;BME280;48149;51.132;7.178;2023-03-29T03:26:01;98709.38;;;6.32;nan
62164;BME280;48149;51.132;7.178;2023-03-29T03:28:26;98719.03;;;6.38;nan
62164;BME280;48149;51.132;7.178;2023-03-29T03:30:52;98710.84;;;6.77;nan
62164;BME280;48149;51.132;7.178;2023-03-29T03:33:18;98700.75;;;6.68;nan
62164;BME280;48149;51.132;7.178;2023-03-29T03:35:43;98698.94;;;6.89;nan
62164;BME280;48149;51.132;7.178;2023-03-29T03:38:13;98700.09;;;6.66;nan
62164;BME280;48149;51.132;7.178;2023-03-29T03:40:39;98699.88;;;6.61;nan
62164;BME280;48149;51.132;7.178;2023-03-29T03:43:04;98708.59;;;6.53;nan
62164;BME280;48149;51.132;7.178;2023-03-29T03:45:30;98711.00;;;6.76;nan
62164;BME280;48149;51.132;7.178;2023-03-29T03:47:56;98709.03;;;6.57;nan
62164;BME280;48149;51.132;7.178;2023-03-29T03:50:21;98707.66;;;6.39;nan
62164;BME280;48149;51.132;7.178;2023-03-29T03:52:47;98698.66;;;6.21;nan
62164;BME280;48149;51.132;7.178;2023-03-29T03:55:12;98703.19;;;6.33;nan
62164;BME280;48149;51.132;7.178;2023-03-29T03:57:38;98702.25;;;6.41;nan
62164;BME280;48149;51.132;7.178;2023-03-29T04:00:04;98711.63;;;6.57;nan
62164;BME280;48149;51.132;7.178;2023-03-29T04:02:55;98700.75;;;6.68;nan
62164;BME280;48149;51.132;7.178;2023-03-29T04:05:21;98696.63;;;6.37;nan
62164;BME280;48149;51.132;7.178;2023-03-29T04:07:46;98696.06;;;6.84;nan
62164;BME280;48149;51.132;7.178;2023-03-29T04:10:11;98701.34;;;6.49;nan
62164;BME280;48149;51.132;7.178;2023-03-29T04:12:37;98693.41;;;6.57;nan
62164;BME280;48149;51.132;7.178;2023-03-29T04:15:03;98691.84;;;6.62;nan
62164;BME280;48149;51.132;7.178;2023-03-29T04:17:29;98689.03;;;6.36;nan
62164;BME280;48149;51.132;7.178;2023-03-29T04:19:54;98684.81;;;6.56;nan
62164;BME280;48149;51.132;7.178;2023-03-29T04:22:21;98688.19;;;6.78;nan
62164;BME280;48149;51.132;7.178;2023-03-29T04:24:46;98685.22;;;6.81;nan
62164;BME280;48149;51.132;7.178;2023-03-29T04:27:11;98688.63;;;6.81;nan
62164;BME280;48149;51.132;7.178;2023-03-29T04:29:37;98682.13;;;6.50;nan
62164;BME280;48149;51.132;7.178;2023-03-29T04:32:02;98683.16;;;6.49;nan
62164;BME280;48149;51.132;7.178;2023-03-29T04:34:27;98676.94;;;6.50;nan
62164;BME280;48149;51.132;7.178;2023-03-29T04:36:52;98685.31;;;6.45;nan
62164;BME280;48149;51.132;7.178;2023-03-29T04:39:18;98691.38;;;6.52;nan
62164;BME280;48149;51.132;7.178;2023-03-29T04:41:43;98684.81;;;6.77;nan
62164;BME280;48149;51.132;7.178;2023-03-29T04:44:08;98682.16;;;6.71;nan
62164;BME280;48149;51.132;7.178;2023-03-29T04:46:34;98685.06;;;6.61;nan
62164;BME280;48149;51.132;7.178;2023-03-29T04:48:59;98695.47;;;6.61;nan
62164;BME280;48149;51.132;7.178;2023-03-29T04:51:24;98688.50;;;6.68;nan
62164;BME280;48149;51.132;7.178;2023-03-29T04:53:49;98688.09;;;6.86;nan
62164;BME280;48149;51.132;7.178;2023-03-29T04:56:15;98689.00;;;6.78;nan
62164;BME280;48149;51.132;7.178;2023-03-29T04:58:41;98678.63;;;6.57;nan
62164;BME280;48149;51.132;7.178;2023-03-29T05:01:08;98686.06;;;6.24;nan
62164;BME280;48149;51.132;7.178;2023-03-29T05:03:33;98688.31;;;6.27;nan
62164;BME280;48149;51.132;7.178;2023-03-29T05:06:06;98684.72;;;6.28;nan
62164;BME280;48149;51.132;7.178;2023-03-29T05:08:33;98686.13;;;6.10;nan
62164;BME280;48149;51.132;7.178;2023-03-29T05:10:58;98684.19;;;6.33;nan
62164;BME280;48149;51.132;7.178;2023-03-29T05:13:24;98680.03;;;6.03;nan
62164;BME280;48149;51.132;7.178;2023-03-29T05:15:49;98680.56;;;6.13;nan
62164;BME280;48149;51.132;7.178;2023-03-29T05:18:14;98679.09;;;5.89;nan
62164;BME280;48149;51.132;7.178;2023-03-29T05:20:39;98672.81;;;5.98;nan
62164;BME280;48149;51.132;7.178;2023-03-29T05:23:06;98684.28;;;5.89;nan
62164;BME280;48149;51.132;7.178;2023-03-29T05:25:31;98679.78;;;5.98;nan
62164;BME280;48149;51.132;7.178;2023-03-29T05:27:57;98682.31;;;5.91;nan
62164;BME280;48149;51.132;7.178;2023-03-29T05:30:23;98686.78;;;5.97;nan
62164;BME280;48149;51.132;7.178;2023-03-29T05:32:48;98676.56;;;5.66;nan
62164;BME280;48149;51.132;7.178;2023-03-29T05:35:13;98675.22;;;5.70;nan
62164;BME280;48149;51.132;7.178;2023-03-29T05:37:39;98665.09;;;5.75;nan
62164;BME280;48149;51.132;7.178;2023-03-29T05:40:04;98673.91;;;5.89;nan
62164;BME280;48149;51.132;7.178;2023-03-29T05:42:32;98665.53;;;5.79;nan
62164;BME280;48149;51.132;7.178;2023-03-29T05:44:57;98663.47;;;5.74;nan
62164;BME280;48149;51.132;7.178;2023-03-29T05:47:22;98655.78;;;5.96;nan
62164;BME280;48149;51.132;7.178;2023-03-29T05:49:48;98662.38;;;5.83;nan
62164;BME280;48149;51.132;7.178;2023-03-29T05:52:13;98656.22;;;5.84;nan
62164;BME280;48149;51.132;7.178;2023-03-29T05:54:39;98654.78;;;5.82;nan
62164;BME280;48149;51.132;7.178;2023-03-29T05:57:05;98656.06;;;5.86;nan
62164;BME280;48149;51.132;7.178;2023-03-29T05:59:30;98659.94;;;5.61;nan
62164;BME280;48149;51.132;7.178;2023-03-29T06:01:56;98656.78;;;5.65;nan
62164;BME280;48149;51.132;7.178;2023-03-29T06:04:24;98667.78;;;5.82;nan
62164;BME280;48149;51.132;7.178;2023-03-29T06:06:50;98663.53;;;6.10;nan
62164;BME280;48149;51.132;7.178;2023-03-29T06:09:17;98666.72;;;5.91;nan
62164;BME280;48149;51.132;7.178;2023-03-29T06:11:43;98664.00;;;5.84;nan
62164;BME280;48149;51.132;7.178;2023-03-29T06:14:08;98674.75;;;5.96;nan
62164;BME280;48149;51.132;7.178;2023-03-29T06:16:34;98662.28;;;6.06;nan
62164;BME280;48149;51.132;7.178;2023-03-29T06:19:00;98664.72;;;5.93;nan
62164;BME280;48149;51.132;7.178;2023-03-29T06:21:25;98670.59;;;6.16;nan
62164;BME280;48149;51.132;7.178;2023-03-29T06:23:52;98667.66;;;6.40;nan
62164;BME280;48149;51.132;7.178;2023-03-29T06:26:18;98664.88;;;6.21;nan
62164;BME280;48149;51.132;7.178;2023-03-29T06:28:44;98667.13;;;6.30;nan
62164;BME280;48149;51.132;7.178;2023-03-29T06:31:09;98667.41;;;6.14;nan
62164;BME280;48149;51.132;7.178;2023-03-29T06:33:34;98666.00;;;6.33;nan
62164;BME280;48149;51.132;7.178;2023-03-29T06:36:01;98682.13;;;6.50;nan
62164;BME280;48149;51.132;7.178;2023-03-29T06:38:27;98675.34;;;6.70;nan
62164;BME280;48149;51.132;7.178;2023-03-29T06:40:58;98678.81;;;6.77;nan
62164;BME280;48149;51.132;7.178;2023-03-29T06:43:24;98675.78;;;6.73;nan
62164;BME280;48149;51.132;7.178;2023-03-29T06:45:50;98683.00;;;6.99;nan
62164;BME280;48149;51.132;7.178;2023-03-29T06:48:15;98684.25;;;6.82;nan
62164;BME280;48149;51.132;7.178;2023-03-29T06:50:40;98686.06;;;7.09;nan
62164;BME280;48149;51.132;7.178;2023-03-29T06:53:05;98681.59;;;6.75;nan
62164;BME280;48149;51.132;7.178;2023-03-29T06:55:31;98689.16;;;6.70;nan
62164;BME280;48149;51.132;7.178;2023-03-29T06:57:56;98693.53;;;6.91;nan
62164;BME280;48149;51.132;7.178;2023-03-29T07:00:21;98683.50;;;7.16;nan
62164;BME280;48149;51.132;7.178;2023-03-29T07:02:54;98688.81;;;7.01;nan
62164;BME280;48149;51.132;7.178;2023-03-29T07:05:20;98681.03;;;6.80;nan
62164;BME280;48149;51.132;7.178;2023-03-29T07:07:45;98685.81;;;7.32;nan
62164;BME280;48149;51.132;7.178;2023-03-29T07:10:39;98687.00;;;7.02;nan
62164;BME280;48149;51.132;7.178;2023-03-29T07:13:05;98680.56;;;7.25;nan
62164;BME280;48149;51.132;7.178;2023-03-29T07:15:31;98684.50;;;7.15;nan
62164;BME280;48149;51.132;7.178;2023-03-29T07:17:57;98681.72;;;7.50;nan
62164;BME280;48149;51.132;7.178;2023-03-29T07:20:22;98683.41;;;7.30;nan
62164;BME280;48149;51.132;7.178;2023-03-29T07:22:48;98681.47;;;7.39;nan
62164;BME280;48149;51.132;7.178;2023-03-29T07:25:17;98681.78;;;9.24;nan
62164;BME280;48149;51.132;7.178;2023-03-29T07:27:43;98682.66;;;7.71;nan
62164;BME280;48149;51.132;7.178;2023-03-29T07:30:10;98690.94;;;7.46;nan
62164;BME280;48149;51.132;7.178;2023-03-29T07:32:36;98681.25;;;7.68;nan
62164;BME280;48149;51.132;7.178;2023-03-29T07:35:03;98682.41;;;7.31;nan
62164;BME280;48149;51.132;7.178;2023-03-29T07:37:29;98694.56;;;7.52;nan
62164;BME280;48149;51.132;7.178;2023-03-29T07:39:55;98689.91;;;7.47;nan
62164;BME280;48149;51.132;7.178;2023-03-29T07:42:20;98691.00;;;7.60;nan
62164;BME280;48149;51.132;7.178;2023-03-29T07:44:46;98688.66;;;8.12;nan
62164;BME280;48149;51.132;7.178;2023-03-29T07:47:12;98687.16;;;8.44;nan
62164;BME280;48149;51.132;7.178;2023-03-29T07:49:37;98681.22;;;8.09;nan
62164;BME280;48149;51.132;7.178;2023-03-29T07:52:03;98684.75;;;7.95;nan
62164;BME280;48149;51.132;7.178;2023-03-29T07:54:28;98681.09;;;7.83;nan
62164;BME280;48149;51.132;7.178;2023-03-29T07:56:56;98682.81;;;8.10;nan
62164;BME280;48149;51.132;7.178;2023-03-29T07:59:21;98680.09;;;8.31;nan
62164;BME280;48149;51.132;7.178;2023-03-29T08:01:46;98686.53;;;8.29;nan
62164;BME280;48149;51.132;7.178;2023-03-29T08:04:11;98690.59;;;8.71;nan
62164;BME280;48149;51.132;7.178;2023-03-29T08:06:37;98681.56;;;8.47;nan
62164;BME280;48149;51.132;7.178;2023-03-29T08:09:02;98688.59;;;8.86;nan
62164;BME280;48149;51.132;7.178;2023-03-29T08:11:27;98687.19;;;8.57;nan
62164;BME280;48149;51.132;7.178;2023-03-29T08:13:53;98693.44;;;8.76;nan
62164;BME280;48149;51.132;7.178;2023-03-29T08:16:19;98699.03;;;8.86;nan
62164;BME280;48149;51.132;7.178;2023-03-29T08:18:44;98697.44;;;8.72;nan
62164;BME280;48149;51.132;7.178;2023-03-29T08:21:09;98686.00;;;8.73;nan
62164;BME280;48149;51.132;7.178;2023-03-29T08:23:35;98680.31;;;8.36;nan
62164;BME280;48149;51.132;7.178;2023-03-29T08:26:00;98691.41;;;8.71;nan
62164;BME280;48149;51.132;7.178;2023-03-29T08:28:25;98691.25;;;8.79;nan
62164;BME280;48149;51.132;7.178;2023-03-29T08:30:51;98694.63;;;8.93;nan
62164;BME280;48149;51.132;7.178;2023-03-29T08:33:17;98693.03;;;9.25;nan
62164;BME280;48149;51.132;7.178;2023-03-29T08:35:43;98689.19;;;9.40;nan
62164;BME280;48149;51.132;7.178;2023-03-29T08:38:08;98696.84;;;8.96;nan
62164;BME280;48149;51.132;7.178;2023-03-29T08:40:34;98698.25;;;8.98;nan
62164;BME280;48149;51.132;7.178;2023-03-29T08:50:47;98695.63;;;9.51;nan
62164;BME280;48149;51.132;7.178;2023-03-29T08:53:56;98690.41;;;9.05;nan
62164;BME280;48149;51.132;7.178;2023-03-29T08:56:10;98684.59;;;9.03;nan
62164;BME280;48149;51.132;7.178;2023-03-29T08:58:37;98687.00;;;9.18;nan
62164;BME280;48149;51.132;7.178;2023-03-29T09:01:03;98675.50;;;9.51;nan
62164;BME280;48149;51.132;7.178;2023-03-29T09:03:30;98685.56;;;9.48;nan
62164;BME280;48149;51.132;7.178;2023-03-29T09:05:58;98681.69;;;9.77;nan
62164;BME280;48149;51.132;7.178;2023-03-29T09:08:26;98669.88;;;10.05;nan
62164;BME280;48149;51.132;7.178;2023-03-29T09:14:20;98677.66;;;9.74;nan
62164;BME280;48149;51.132;7.178;2023-03-29T09:21:15;98686.50;;;9.80;nan
62164;BME280;48149;51.132;7.178;2023-03-29T09:32:21;98682.56;;;10.08;nan
62164;BME280;48149;51.132;7.178;2023-03-29T09:34:59;98689.69;;;10.39;nan
62164;BME280;48149;51.132;7.178;2023-03-29T09:37:34;98682.53;;;10.53;nan
62164;BME280;48149;51.132;7.178;2023-03-29T09:40:01;98681.03;;;10.70;nan
62164;BME280;48149;51.132;7.178;2023-03-29T09:42:28;98685.34;;;10.58;nan
62164;BME280;48149;51.132;7.178;2023-03-29T09:44:56;98675.06;;;10.25;nan
62164;BME280;48149;51.132;7.178;2023-03-29T09:47:37;98666.63;;;10.54;nan
62164;BME280;48149;51.132;7.178;2023-03-29T09:50:12;98675.69;;;10.83;nan
62164;BME280;48149;51.132;7.178;2023-03-29T09:52:40;98672.38;;;10.69;nan
62164;BME280;48149;51.132;7.178;2023-03-29T09:55:05;98677.41;;;10.96;nan
62164;BME280;48149;51.132;7.178;2023-03-29T09:57:31;98678.78;;;11.23;nan
62164;BME280;48149;51.132;7.178;2023-03-29T09:59:57;98672.06;;;11.09;nan
62164;BME280;48149;51.132;7.178;2023-03-29T10:02:23;98675.03;;;11.37;nan
62164;BME280;48149;51.132;7.178;2023-03-29T10:04:52;98662.44;;;11.64;nan
62164;BME280;48149;51.132;7.178;2023-03-29T10:07:19;98662.31;;;11.16;nan
62164;BME280;48149;51.132;7.178;2023-03-29T10:09:45;98663.69;;;11.61;nan
62164;BME280;48149;51.132;7.178;2023-03-29T10:12:11;98663.94;;;11.96;nan
62164;BME280;48149;51.132;7.178;2023-03-29T10:14:40;98663.84;;;12.32;nan
62164;BME280;48149;51.132;7.178;2023-03-29T10:17:12;98667.00;;;11.75;nan
62164;BME280;48149;51.132;7.178;2023-03-29T10:19:45;98663.06;;;11.66;nan
62164;BME280;48149;51.132;7.178;2023-03-29T10:22:14;98664.69;;;11.60;nan
62164;BME280;48149;51.132;7.178;2023-03-29T10:24:40;98659.75;;;11.52;nan
62164;BME280;48149;51.132;7.178;2023-03-29T10:27:11;98655.59;;;12.47;nan
62164;BME280;48149;51.132;7.178;2023-03-29T10:29:37;98655.97;;;12.32;nan
62164;BME280;48149;51.132;7.178;2023-03-29T10:32:14;98652.59;;;12.14;nan
62164;BME280;48149;51.132;7.178;2023-03-29T10:34:40;98654.75;;;12.35;nan
62164;BME280;48149;51.132;7.178;2023-03-29T10:37:06;98656.94;;;12.38;nan
62164;BME280;48149;51.132;7.178;2023-03-29T10:39:33;98663.31;;;12.12;nan
62164;BME280;48149;51.132;7.178;2023-03-29T10:41:58;98659.84;;;12.30;nan
62164;BME280;48149;51.132;7.178;2023-03-29T10:44:29;98665.16;;;11.94;nan
62164;BME280;48149;51.132;7.178;2023-03-29T10:46:55;98661.31;;;11.96;nan
62164;BME280;48149;51.132;7.178;2023-03-29T10:49:30;98662.06;;;12.15;nan
62164;BME280;48149;51.132;7.178;2023-03-29T10:52:05;98662.94;;;11.54;nan
62164;BME280;48149;51.132;7.178;2023-03-29T10:54:30;98655.09;;;11.72;nan
62164;BME280;48149;51.132;7.178;2023-03-29T10:56:56;98650.97;;;12.43;nan
62164;BME280;48149;51.132;7.178;2023-03-29T11:04:35;98657.13;;;12.90;nan
62164;BME280;48149;51.132;7.178;2023-03-29T11:17:46;98628.94;;;15.94;nan
62164;BME280;48149;51.132;7.178;2023-03-29T11:41:20;98621.19;;;14.45;nan
62164;BME280;48149;51.132;7.178;2023-03-29T11:44:32;98618.19;;;14.53;nan
62164;BME280;48149;51.132;7.178;2023-03-29T11:46:34;98606.53;;;15.75;nan
62164;BME280;48149;51.132;7.178;2023-03-29T11:49:05;98603.72;;;16.35;nan
62164;BME280;48149;51.132;7.178;2023-03-29T11:51:37;98599.97;;;16.31;nan
62164;BME280;48149;51.132;7.178;2023-03-29T11:56:43;98603.13;;;15.20;nan
62164;BME280;48149;51.132;7.178;2023-03-29T11:59:10;98600.28;;;14.38;nan
62164;BME280;48149;51.132;7.178;2023-03-29T12:10:52;98598.56;;;16.50;nan
62164;BME280;48149;51.132;7.178;2023-03-29T12:13:21;98598.63;;;15.37;nan
62164;BME280;48149;51.132;7.178;2023-03-29T12:15:52;98594.59;;;15.94;nan
62164;BME280;48149;51.132;7.178;2023-03-29T12:20:52;98598.16;;;15.83;nan
62164;BME280;48149;51.132;7.178;2023-03-29T12:23:19;98596.06;;;14.54;nan
62164;BME280;48149;51.132;7.178;2023-03-29T12:31:00;98585.44;;;15.37;nan
62164;BME280;48149;51.132;7.178;2023-03-29T12:33:30;98570.16;;;15.39;nan
62164;BME280;48149;51.132;7.178;2023-03-29T12:38:27;98560.72;;;17.71;nan
62164;BME280;48149;51.132;7.178;2023-03-29T12:40:55;98567.56;;;17.15;nan
62164;BME280;48149;51.132;7.178;2023-03-29T12:45:57;98550.03;;;15.76;nan
62164;BME280;48149;51.132;7.178;2023-03-29T12:48:26;98550.63;;;15.57;nan
62164;BME280;48149;51.132;7.178;2023-03-29T12:51:02;98553.25;;;15.78;nan
62164;BME280;48149;51.132;7.178;2023-03-29T12:53:39;98554.44;;;15.27;nan
62164;BME280;48149;51.132;7.178;2023-03-29T13:04:47;98554.69;;;17.23;nan
62164;BME280;48149;51.132;7.178;2023-03-29T13:09:51;98546.25;;;18.19;nan
62164;BME280;48149;51.132;7.178;2023-03-29T13:14:43;98538.81;;;18.41;nan
62164;BME280;48149;51.132;7.178;2023-03-29T13:17:18;98542.88;;;16.99;nan
62164;BME280;48149;51.132;7.178;2023-03-29T13:19:49;98538.59;;;16.83;nan
62164;BME280;48149;51.132;7.178;2023-03-29T13:29:54;98521.81;;;15.77;nan
62164;BME280;48149;51.132;7.178;2023-03-29T13:40:24;98525.38;;;15.92;nan
62164;BME280;48149;51.132;7.178;2023-03-29T13:49:09;98533.03;;;15.24;nan
62164;BME280;48149;51.132;7.178;2023-03-29T13:53:38;98522.47;;;16.89;nan
62164;BME280;48149;51.132;7.178;2023-03-29T13:56:05;98527.16;;;17.96;nan
62164;BME280;48149;51.132;7.178;2023-03-29T14:01:11;98509.94;;;17.89;nan
62164;BME280;48149;51.132;7.178;2023-03-29T14:03:45;98508.06;;;17.94;nan
62164;BME280;48149;51.132;7.178;2023-03-29T14:06:13;98497.50;;;18.04;nan
62164;BME280;48149;51.132;7.178;2023-03-29T14:08:40;98489.28;;;18.01;nan
62164;BME280;48149;51.132;7.178;2023-03-29T14:11:06;98481.34;;;18.61;nan
62164;BME280;48149;51.132;7.178;2023-03-29T14:13:36;98467.84;;;18.53;nan
62164;BME280;48149;51.132;7.178;2023-03-29T14:16:03;98461.97;;;18.16;nan
62164;BME280;48149;51.132;7.178;2023-03-29T14:18:36;98462.38;;;17.32;nan
62164;BME280;48149;51.132;7.178;2023-03-29T14:21:01;98465.69;;;17.84;nan
62164;BME280;48149;51.132;7.178;2023-03-29T14:23:28;98461.44;;;18.19;nan
62164;BME280;48149;51.132;7.178;2023-03-29T14:26:19;98462.50;;;17.67;nan
62164;BME280;48149;51.132;7.178;2023-03-29T14:28:46;98458.47;;;16.87;nan
62164;BME280;48149;51.132;7.178;2023-03-29T14:43:05;98439.84;;;16.57;nan
62164;BME280;48149;51.132;7.178;2023-03-29T14:45:31;98444.00;;;16.53;nan
62164;BME280;48149;51.132;7.178;2023-03-29T14:47:57;98429.19;;;16.99;nan
62164;BME280;48149;51.132;7.178;2023-03-29T14:50:24;98432.94;;;16.56;nan
62164;BME280;48149;51.132;7.178;2023-03-29T14:52:50;98453.06;;;16.62;nan
62164;BME280;48149;51.132;7.178;2023-03-29T14:55:16;98442.13;;;16.12;nan
62164;BME280;48149;51.132;7.178;2023-03-29T14:57:44;98457.03;;;16.60;nan
62164;BME280;48149;51.132;7.178;2023-03-29T15:02:49;98438.81;;;16.63;nan
62164;BME280;48149;51.132;7.178;2023-03-29T15:05:24;98440.44;;;16.74;nan
62164;BME280;48149;51.132;7.178;2023-03-29T15:07:50;98434.41;;;16.84;nan
62164;BME280;48149;51.132;7.178;2023-03-29T15:10:16;98437.56;;;16.76;nan
62164;BME280;48149;51.132;7.178;2023-03-29T15:12:42;98430.31;;;16.61;nan
62164;BME280;48149;51.132;7.178;2023-03-29T15:15:09;98425.66;;;16.78;nan
62164;BME280;48149;51.132;7.178;2023-03-29T15:17:39;98424.06;;;16.77;nan
62164;BME280;48149;51.132;7.178;2023-03-29T15:20:06;98434.22;;;16.53;nan
62164;BME280;48149;51.132;7.178;2023-03-29T15:22:38;98420.88;;;16.70;nan
62164;BME280;48149;51.132;7.178;2023-03-29T15:25:14;98412.28;;;16.53;nan
62164;BME280;48149;51.132;7.178;2023-03-29T15:27:40;98415.00;;;16.26;nan
62164;BME280;48149;51.132;7.178;2023-03-29T15:30:13;98408.41;;;16.61;nan
62164;BME280;48149;51.132;7.178;2023-03-29T15:32:39;98403.38;;;16.64;nan
62164;BME280;48149;51.132;7.178;2023-03-29T15:35:06;98403.19;;;16.39;nan
62164;BME280;48149;51.132;7.178;2023-03-29T15:37:33;98402.38;;;16.28;nan
62164;BME280;48149;51.132;7.178;2023-03-29T15:39:58;98389.97;;;16.34;nan
62164;BME280;48149;51.132;7.178;2023-03-29T15:42:24;98384.81;;;16.07;nan
62164;BME280;48149;51.132;7.178;2023-03-29T15:44:53;98375.59;;;15.78;nan
62164;BME280;48149;51.132;7.178;2023-03-29T15:47:19;98385.16;;;15.57;nan
62164;BME280;48149;51.132;7.178;2023-03-29T15:49:47;98380.16;;;15.56;nan
62164;BME280;48149;51.132;7.178;2023-03-29T15:52:12;98374.00;;;15.77;nan
62164;BME280;48149;51.132;7.178;2023-03-29T15:54:38;98377.81;;;15.59;nan
62164;BME280;48149;51.132;7.178;2023-03-29T15:57:06;98373.63;;;15.63;nan
62164;BME280;48149;51.132;7.178;2023-03-29T15:59:32;98368.09;;;15.38;nan
62164;BME280;48149;51.132;7.178;2023-03-29T16:01:58;98373.53;;;15.53;nan